createdAt,value
2018-07-24T00:02:07.882Z,71.60
2018-07-24T00:04:36.428Z,71.70
2018-07-24T00:07:04.948Z,72.10
2018-07-24T00:09:33.476Z,72.20
2018-07-24T00:12:02.034Z,72.40
2018-07-24T00:14:30.569Z,72.40
2018-07-24T00:16:59.148Z,72.70
2018-07-24T00:19:27.680Z,72.80
2018-07-24T00:21:56.185Z,73.20
2018-07-24T00:24:24.722Z,73.60
2018-07-24T00:26:53.254Z,73.80
2018-07-24T00:29:21.773Z,73.60
2018-07-24T00:31:50.312Z,73.30
2018-07-24T00:34:18.898Z,73.40
2018-07-24T00:36:47.455Z,73.90
2018-07-24T00:39:15.982Z,73.80
2018-07-24T00:41:44.531Z,74.20
2018-07-24T00:44:13.072Z,74.10
2018-07-24T00:46:41.706Z,74.40
2018-07-24T00:49:10.280Z,74.50
2018-07-24T00:51:38.890Z,74.40
2018-07-24T00:54:07.467Z,74.50
2018-07-24T00:56:35.989Z,74.50
2018-07-24T00:59:04.545Z,74.70
2018-07-24T01:01:33.094Z,74.90
2018-07-24T01:04:01.741Z,75.50
2018-07-24T01:06:30.389Z,75.70
2018-07-24T01:08:58.944Z,75.70
2018-07-24T01:11:27.546Z,75.40
2018-07-24T01:13:56.128Z,75.30
2018-07-24T01:16:24.728Z,75.60
2018-07-24T01:18:53.262Z,75.60
2018-07-24T01:21:21.834Z,75.90
2018-07-24T01:23:50.390Z,76.30
2018-07-24T01:26:18.936Z,76.30
2018-07-24T01:28:47.563Z,76.30
2018-07-24T01:31:16.127Z,76.50
2018-07-24T01:33:44.644Z,76.70
2018-07-24T01:36:13.149Z,76.80
2018-07-24T01:38:41.686Z,76.80
2018-07-24T01:41:10.211Z,76.80
2018-07-24T01:43:38.746Z,76.80
2018-07-24T01:46:07.411Z,76.80
2018-07-24T01:48:35.961Z,76.70
2018-07-24T01:51:04.472Z,76.90
2018-07-24T01:53:32.971Z,76.90
2018-07-24T01:56:01.503Z,77.20
2018-07-24T01:58:30.044Z,77.20
2018-07-24T02:01:02.846Z,77.30
2018-07-24T02:03:32.458Z,77.70
2018-07-24T02:06:01.533Z,77.80
2018-07-24T02:08:30.062Z,77.90
2018-07-24T02:10:58.570Z,78.00
2018-07-24T02:13:27.184Z,78.40
2018-07-24T02:15:55.765Z,78.40
2018-07-24T02:18:24.285Z,78.80
2018-07-24T02:20:52.853Z,79.00
2018-07-24T02:23:21.390Z,79.20
2018-07-24T02:25:49.902Z,79.20
2018-07-24T02:28:18.419Z,79.10
2018-07-24T02:30:46.990Z,79.30
2018-07-24T02:33:15.525Z,79.30
2018-07-24T02:35:44.063Z,79.20
2018-07-24T02:38:12.656Z,79.30
2018-07-24T02:40:41.205Z,79.30
2018-07-24T02:43:09.761Z,79.30
2018-07-24T02:45:38.287Z,79.60
2018-07-24T02:48:06.803Z,79.90
2018-07-24T02:50:38.543Z,79.80
2018-07-24T02:53:07.097Z,79.90
2018-07-24T02:55:35.598Z,80.10
2018-07-24T02:58:04.167Z,80.00
2018-07-24T03:00:32.742Z,80.30
2018-07-24T03:03:01.272Z,80.60
2018-07-24T03:05:29.827Z,80.60
2018-07-24T03:07:58.393Z,80.60
2018-07-24T03:10:27.010Z,80.50
2018-07-24T03:12:55.542Z,80.50
2018-07-24T03:15:24.122Z,80.60
2018-07-24T03:17:52.667Z,80.30
2018-07-24T03:20:21.190Z,80.40
2018-07-24T03:22:49.793Z,80.50
2018-07-24T03:25:18.307Z,80.70
2018-07-24T03:27:46.811Z,80.70
2018-07-24T03:30:15.319Z,80.70
2018-07-24T03:32:43.852Z,80.70
2018-07-24T03:35:12.373Z,80.80
2018-07-24T03:37:40.921Z,80.80
2018-07-24T03:40:09.518Z,80.90
2018-07-24T03:42:38.069Z,81.00
2018-07-24T03:45:06.735Z,80.90
2018-07-24T03:47:35.253Z,81.10
2018-07-24T03:50:04.254Z,81.30
2018-07-24T03:52:32.803Z,81.30
2018-07-24T03:55:01.408Z,81.30
2018-07-24T03:57:29.949Z,81.10
2018-07-24T03:59:58.439Z,81.20
2018-07-24T04:02:27.021Z,81.30
2018-07-24T04:04:55.513Z,81.20
2018-07-24T04:07:24.026Z,81.40
2018-07-24T04:09:52.565Z,81.30
2018-07-24T04:12:21.167Z,81.50
2018-07-24T04:14:49.716Z,81.40
2018-07-24T04:17:18.218Z,81.50
2018-07-24T04:19:46.726Z,81.30
2018-07-24T04:22:15.250Z,81.20
2018-07-24T04:24:44.443Z,81.60
2018-07-24T04:27:12.962Z,81.50
2018-07-24T04:29:41.474Z,81.40
2018-07-24T04:32:10.258Z,81.30
2018-07-24T04:34:38.799Z,81.60
2018-07-24T04:37:07.372Z,81.70
2018-07-24T04:39:35.938Z,81.60
2018-07-24T04:42:04.532Z,82.00
2018-07-24T04:44:33.079Z,81.90
2018-07-24T04:47:01.579Z,82.30
2018-07-24T04:49:30.097Z,82.00
2018-07-24T04:51:58.647Z,81.90
2018-07-24T04:54:27.175Z,82.10
2018-07-24T04:56:55.685Z,82.00
2018-07-24T04:59:24.238Z,82.10
2018-07-24T05:01:52.773Z,82.00
2018-07-24T05:04:21.304Z,82.10
2018-07-24T05:06:49.836Z,82.00
2018-07-24T05:09:18.383Z,82.10
2018-07-24T05:11:46.883Z,82.20
2018-07-24T05:14:15.652Z,82.10
2018-07-24T05:16:44.218Z,81.70
2018-07-24T05:19:12.755Z,81.50
2018-07-24T05:21:41.269Z,81.20
2018-07-24T05:24:10.280Z,80.90
2018-07-24T05:26:38.802Z,80.60
2018-07-24T05:29:07.603Z,80.50
2018-07-24T05:31:36.235Z,80.50
2018-07-24T05:34:05.497Z,80.30
2018-07-24T05:36:34.185Z,80.20
2018-07-24T05:39:02.831Z,80.20
2018-07-24T05:41:31.384Z,80.10
2018-07-24T05:43:59.957Z,79.80
2018-07-24T05:46:28.516Z,79.50
2018-07-24T05:48:57.147Z,78.90
2018-07-24T05:51:25.645Z,79.00
2018-07-24T05:53:54.178Z,79.10
2018-07-24T05:56:22.704Z,78.80
2018-07-24T05:58:51.268Z,78.50
2018-07-24T06:01:19.854Z,78.80
2018-07-24T06:03:48.422Z,79.10
2018-07-24T06:06:17.070Z,77.70
2018-07-24T06:08:45.604Z,76.00
2018-07-24T06:11:14.187Z,75.50
2018-07-24T06:13:42.704Z,74.50
2018-07-24T06:16:11.339Z,74.10
2018-07-24T06:18:39.880Z,73.20
2018-07-24T06:21:08.462Z,74.00
2018-07-24T06:23:37.169Z,72.70
2018-07-24T06:26:05.739Z,70.20
2018-07-24T06:28:34.398Z,69.70
2018-07-24T06:31:03.090Z,70.50
2018-07-24T06:33:31.742Z,70.10
2018-07-24T06:36:00.313Z,69.20
2018-07-24T06:38:28.981Z,69.30
2018-07-24T06:40:57.619Z,68.40
2018-07-24T06:43:26.136Z,67.00
2018-07-24T06:45:54.645Z,67.10
2018-07-24T06:48:23.184Z,65.90
2018-07-24T06:50:51.841Z,66.00
2018-07-24T06:53:20.406Z,64.80
2018-07-24T06:55:48.971Z,63.90
2018-07-24T06:58:17.519Z,64.80
2018-07-24T07:00:46.082Z,64.30
2018-07-24T07:03:14.725Z,63.80
2018-07-24T07:05:43.276Z,64.20
2018-07-24T07:08:11.835Z,64.90
2018-07-24T07:10:40.402Z,64.30
2018-07-24T07:13:10.354Z,64.10
2018-07-24T07:15:38.979Z,62.90
2018-07-24T07:18:07.500Z,62.30
2018-07-24T07:23:04.257Z,61.00
2018-07-24T07:25:32.823Z,60.80
2018-07-24T07:28:01.374Z,60.90
2018-07-24T07:30:29.915Z,61.00
2018-07-24T07:32:58.507Z,59.90
2018-07-24T07:35:27.160Z,59.50
2018-07-24T07:37:55.685Z,59.80
2018-07-24T07:40:24.220Z,59.60
2018-07-24T07:42:53.562Z,58.90
2018-07-24T07:45:23.110Z,59.60
2018-07-24T07:47:51.767Z,59.60
2018-07-24T07:50:20.764Z,59.50
2018-07-24T07:52:49.318Z,60.90
2018-07-24T07:55:17.887Z,60.00
2018-07-24T07:57:46.416Z,59.10
2018-07-24T08:00:14.959Z,59.10
2018-07-24T08:02:43.559Z,59.50
2018-07-24T08:05:12.134Z,61.30
2018-07-24T08:07:40.838Z,59.90
2018-07-24T08:10:09.390Z,61.30
2018-07-24T08:12:38.016Z,58.80
2018-07-24T08:15:06.703Z,60.00
2018-07-24T08:17:35.588Z,59.40
2018-07-24T08:20:04.707Z,58.80
2018-07-24T08:22:33.331Z,58.30
2018-07-24T08:25:02.009Z,57.50
2018-07-24T08:29:58.965Z,57.70
2018-07-24T08:32:27.538Z,57.40
2018-07-24T08:34:56.087Z,58.20
2018-07-24T08:37:24.701Z,57.00
2018-07-24T08:39:53.298Z,56.90
2018-07-24T08:42:21.888Z,57.30
2018-07-24T08:44:50.553Z,55.30
2018-07-24T08:47:19.070Z,55.80
2018-07-24T08:49:47.568Z,54.90
2018-07-24T08:52:16.111Z,56.40
2018-07-24T08:54:44.831Z,55.40
2018-07-24T08:57:13.184Z,53.80
2018-07-24T08:59:41.689Z,55.50
2018-07-24T09:02:10.210Z,55.60
2018-07-24T09:04:38.738Z,55.70
2018-07-24T09:07:07.552Z,55.10
2018-07-24T09:09:36.065Z,54.30
2018-07-24T09:12:04.621Z,51.50
2018-07-24T09:14:33.118Z,50.90
2018-07-24T09:17:01.635Z,50.50
2018-07-24T09:19:30.155Z,51.00
2018-07-24T09:21:58.722Z,51.20
2018-07-24T09:24:27.232Z,50.70
2018-07-24T09:26:55.796Z,50.30
2018-07-24T09:29:24.336Z,49.30
2018-07-24T09:31:52.847Z,49.30
2018-07-24T09:34:21.420Z,50.30
2018-07-24T09:36:49.930Z,47.80
2018-07-24T09:39:18.417Z,47.30
2018-07-24T09:41:46.949Z,48.10
2018-07-24T09:44:15.465Z,46.50
2018-07-24T09:46:43.997Z,46.50
2018-07-24T09:49:12.550Z,42.80
2018-07-24T09:51:41.090Z,44.40
2018-07-24T09:54:09.597Z,45.20
2018-07-24T09:56:38.112Z,44.30
2018-07-24T09:59:06.628Z,45.60
2018-07-24T10:01:35.762Z,48.30
2018-07-24T10:04:05.194Z,48.50
2018-07-24T10:06:34.670Z,45.60
2018-07-24T10:09:03.683Z,44.90
2018-07-24T10:11:32.198Z,45.50
2018-07-24T10:14:00.656Z,45.40
2018-07-24T10:16:29.168Z,43.90
2018-07-24T10:18:57.675Z,44.00
2018-07-24T10:21:26.202Z,42.20
2018-07-24T10:23:54.702Z,42.00
2018-07-24T10:26:23.210Z,41.90
2018-07-24T10:28:51.728Z,42.10
2018-07-24T10:31:20.221Z,43.40
2018-07-24T10:33:48.785Z,43.90
2018-07-24T10:36:17.285Z,42.70
2018-07-24T10:38:45.798Z,42.60
2018-07-24T10:41:14.317Z,43.00
2018-07-24T10:43:42.870Z,42.30
2018-07-24T10:46:11.368Z,42.70
2018-07-24T10:48:39.886Z,43.40
2018-07-24T10:51:08.428Z,43.00
2018-07-24T10:53:36.978Z,43.40
2018-07-24T10:56:05.611Z,41.90
2018-07-24T10:58:34.123Z,44.10
2018-07-24T11:01:02.723Z,42.90
2018-07-24T11:03:31.222Z,42.80
2018-07-24T11:05:59.718Z,46.10
2018-07-24T11:08:28.216Z,45.30
2018-07-24T11:10:56.761Z,43.80
2018-07-24T11:13:25.266Z,43.30
2018-07-24T11:15:53.772Z,42.90
2018-07-24T11:18:22.277Z,42.70
2018-07-24T11:20:50.763Z,42.40
2018-07-24T11:23:20.066Z,41.60
2018-07-24T11:25:48.634Z,40.90
2018-07-24T11:28:17.128Z,40.70
2018-07-24T11:30:45.638Z,41.20
2018-07-24T11:33:14.157Z,40.40
2018-07-24T11:35:42.851Z,40.60
2018-07-24T11:38:11.176Z,41.50
2018-07-24T11:40:39.698Z,41.10
2018-07-24T11:43:08.200Z,41.10
2018-07-24T11:45:36.696Z,41.00
2018-07-24T11:48:05.266Z,41.10
2018-07-24T11:50:33.807Z,40.10
2018-07-24T11:53:02.328Z,39.60
2018-07-24T11:55:30.916Z,39.60
2018-07-24T11:57:59.415Z,38.00
2018-07-24T12:00:27.941Z,38.30
2018-07-24T12:02:56.572Z,38.20
2018-07-24T12:05:25.226Z,37.90
2018-07-24T12:07:53.823Z,37.30
2018-07-24T12:10:22.314Z,37.90
2018-07-24T12:12:50.858Z,41.00
2018-07-24T12:15:19.395Z,39.40
2018-07-24T12:17:47.914Z,38.70
2018-07-24T12:20:16.514Z,39.20
2018-07-24T12:22:45.132Z,40.60
2018-07-24T12:25:13.679Z,38.80
2018-07-24T12:27:42.189Z,37.40
2018-07-24T12:30:10.748Z,39.60
2018-07-24T12:32:39.264Z,37.90
2018-07-24T12:35:07.770Z,39.30
2018-07-24T12:37:36.262Z,39.50
2018-07-24T12:40:04.974Z,39.20
2018-07-24T12:42:33.531Z,38.30
2018-07-24T12:45:02.049Z,38.50
2018-07-24T12:47:30.590Z,38.40
2018-07-24T12:49:59.284Z,38.10
2018-07-24T12:52:27.848Z,39.30
2018-07-24T12:54:56.361Z,38.30
2018-07-24T12:57:24.882Z,37.20
2018-07-24T12:59:53.378Z,37.50
2018-07-24T13:02:21.921Z,36.50
2018-07-24T13:04:50.433Z,37.90
2018-07-24T13:07:18.964Z,37.70
2018-07-24T13:09:47.490Z,38.80
2018-07-24T13:12:16.083Z,37.70
2018-07-24T13:14:44.610Z,35.60
2018-07-24T13:17:13.092Z,34.90
2018-07-24T13:19:41.658Z,35.20
2018-07-24T13:22:10.125Z,35.50
2018-07-24T13:24:38.616Z,36.20
2018-07-24T13:27:07.243Z,39.20
2018-07-24T13:29:35.766Z,36.60
2018-07-24T13:32:04.444Z,36.80
2018-07-24T13:34:33.034Z,36.20
2018-07-24T13:37:01.547Z,36.80
2018-07-24T13:39:30.066Z,35.80
2018-07-24T13:41:58.558Z,36.50
2018-07-24T13:44:27.070Z,37.10
2018-07-24T13:46:55.630Z,37.50
2018-07-24T13:49:24.127Z,37.20
2018-07-24T13:51:52.650Z,36.20
2018-07-24T13:54:21.166Z,36.00
2018-07-24T13:56:49.657Z,35.00
2018-07-24T13:59:18.147Z,36.50
2018-07-24T14:01:46.616Z,35.80
2018-07-24T14:04:15.120Z,38.10
2018-07-24T14:06:43.629Z,37.30
2018-07-24T14:09:12.716Z,36.10
2018-07-24T14:11:41.902Z,35.50
2018-07-24T14:14:10.935Z,34.80
2018-07-24T14:16:40.281Z,36.30
2018-07-24T14:19:08.861Z,35.40
2018-07-24T14:21:37.375Z,36.80
2018-07-24T14:24:05.910Z,35.20
2018-07-24T14:26:34.417Z,35.40
2018-07-24T14:29:02.940Z,35.80
2018-07-24T14:31:31.462Z,35.00
2018-07-24T14:33:59.977Z,35.40
2018-07-24T14:36:28.515Z,35.10
2018-07-24T14:38:57.054Z,34.50
2018-07-24T14:41:25.592Z,34.90
2018-07-24T14:43:54.123Z,35.30
2018-07-24T14:46:22.681Z,34.60
2018-07-24T14:48:51.189Z,34.50
2018-07-24T14:51:19.741Z,36.30
2018-07-24T14:53:48.234Z,36.70
2018-07-24T14:56:16.760Z,35.80
2018-07-24T14:58:45.300Z,35.10
2018-07-24T15:01:13.790Z,35.60
2018-07-24T15:03:42.487Z,35.30
2018-07-24T15:06:11.003Z,35.00
2018-07-24T15:08:39.492Z,36.10
2018-07-24T15:11:08.026Z,35.80
2018-07-24T15:13:39.465Z,35.60
2018-07-24T15:16:07.976Z,35.50
2018-07-24T15:18:36.461Z,35.80
2018-07-24T15:21:04.971Z,35.60
2018-07-24T15:23:33.519Z,36.30
2018-07-24T15:26:02.086Z,36.80
2018-07-24T15:28:30.643Z,36.70
2018-07-24T15:30:59.157Z,36.80
2018-07-24T15:33:27.686Z,37.90
2018-07-24T15:35:56.228Z,38.00
2018-07-24T15:38:24.800Z,37.30
2018-07-24T15:40:53.309Z,37.30
2018-07-24T15:43:21.873Z,37.40
2018-07-24T15:45:50.386Z,37.60
2018-07-24T15:48:18.889Z,37.20
2018-07-24T15:50:47.435Z,37.30
2018-07-24T15:53:15.962Z,37.60
2018-07-24T15:55:44.456Z,37.40
2018-07-24T15:58:13.072Z,37.50
2018-07-24T16:00:41.651Z,37.60
2018-07-24T16:03:10.186Z,37.20
2018-07-24T16:05:38.747Z,37.10
2018-07-24T16:08:07.309Z,37.10
2018-07-24T16:10:35.842Z,37.70
2018-07-24T16:13:04.601Z,37.90
2018-07-24T16:15:33.206Z,37.40
2018-07-24T16:18:01.683Z,38.00
2018-07-24T16:20:30.211Z,37.60
2018-07-24T16:22:58.759Z,37.90
2018-07-24T16:25:27.252Z,38.20
2018-07-24T16:27:55.922Z,38.80
2018-07-24T16:30:24.478Z,38.20
2018-07-24T16:32:53.010Z,38.40
2018-07-24T16:35:21.560Z,38.90
2018-07-24T16:37:50.063Z,39.60
2018-07-24T16:40:18.594Z,38.80
2018-07-24T16:42:47.155Z,39.40
2018-07-24T16:45:15.661Z,38.90
2018-07-24T16:47:44.222Z,38.40
2018-07-24T16:50:12.710Z,38.00
2018-07-24T16:52:41.240Z,39.60
2018-07-24T16:55:09.790Z,39.60
2018-07-24T16:57:38.326Z,39.30
2018-07-24T17:00:06.976Z,39.40
2018-07-24T17:02:35.898Z,39.10
2018-07-24T17:05:04.478Z,39.30
2018-07-24T17:07:33.002Z,39.90
2018-07-24T17:10:01.876Z,39.70
2018-07-24T17:12:30.575Z,40.00
2018-07-24T17:14:59.393Z,39.80
2018-07-24T17:17:28.191Z,39.90
2018-07-24T17:19:57.760Z,39.90
2018-07-24T17:24:54.970Z,41.40
2018-07-24T17:27:24.674Z,40.70
2018-07-24T17:29:53.435Z,41.30
2018-07-24T17:32:22.033Z,40.90
2018-07-24T17:34:50.587Z,41.50
2018-07-24T17:37:19.141Z,41.60
2018-07-24T17:39:47.654Z,41.90
2018-07-24T17:42:16.169Z,41.50
2018-07-24T17:44:44.721Z,41.70
2018-07-24T17:47:13.273Z,41.90
2018-07-24T17:49:41.883Z,42.70
2018-07-24T17:52:10.453Z,42.40
2018-07-24T17:54:39.100Z,42.80
2018-07-24T17:57:08.028Z,42.80
2018-07-24T17:59:36.629Z,42.80
2018-07-24T18:02:05.274Z,43.40
2018-07-24T18:04:33.953Z,43.00
2018-07-24T18:07:02.508Z,43.20
2018-07-24T18:09:31.099Z,43.10
2018-07-24T18:11:59.668Z,43.80
2018-07-24T18:14:28.182Z,44.20
2018-07-24T18:16:56.714Z,44.80
2018-07-24T18:19:25.256Z,45.60
2018-07-24T18:21:53.778Z,46.50
2018-07-24T18:24:22.284Z,47.00
2018-07-24T18:26:50.794Z,46.90
2018-07-24T18:29:19.318Z,47.20
2018-07-24T18:31:47.884Z,47.60
2018-07-24T18:34:16.422Z,47.90
2018-07-24T18:36:45.033Z,48.10
2018-07-24T18:39:13.570Z,48.80
2018-07-24T18:41:42.251Z,48.70
2018-07-24T18:44:10.897Z,48.90
2018-07-24T18:46:39.505Z,49.00
2018-07-24T18:49:08.013Z,49.60
2018-07-24T18:51:36.546Z,50.10
2018-07-24T18:54:05.490Z,49.70
2018-07-24T18:56:34.017Z,49.70
2018-07-24T18:59:02.595Z,49.60
2018-07-24T19:01:31.366Z,50.00
2018-07-24T19:03:59.954Z,50.00
2018-07-24T19:06:28.550Z,50.50
2018-07-24T19:08:57.125Z,50.80
2018-07-24T19:11:25.651Z,50.90
2018-07-24T19:13:54.174Z,51.30
2018-07-24T19:16:25.259Z,51.70
2018-07-24T19:18:54.890Z,51.90
2018-07-24T19:21:23.454Z,52.10
2018-07-24T19:23:52.017Z,52.40
2018-07-24T19:26:20.573Z,53.20
2018-07-24T19:28:49.218Z,53.20
2018-07-24T19:31:17.890Z,53.40
2018-07-24T19:33:46.478Z,53.50
2018-07-24T19:36:15.083Z,53.10
2018-07-24T19:38:43.662Z,53.80
2018-07-24T19:41:12.192Z,54.30
2018-07-24T19:43:40.800Z,54.20
2018-07-24T19:46:09.352Z,54.50
2018-07-24T19:48:37.966Z,54.40
2018-07-24T19:51:06.720Z,55.20
2018-07-24T19:53:35.259Z,55.30
2018-07-24T19:56:04.023Z,56.00
2018-07-24T19:58:33.171Z,56.50
2018-07-24T20:01:01.781Z,56.70
2018-07-24T20:03:30.419Z,56.90
2018-07-24T20:05:58.964Z,57.40
2018-07-24T20:08:27.602Z,57.60
2018-07-24T20:10:56.291Z,57.60
2018-07-24T20:13:24.834Z,57.80
2018-07-24T20:15:53.429Z,58.00
2018-07-24T20:18:21.926Z,58.60
2018-07-24T20:20:50.458Z,58.40
2018-07-24T20:23:19.090Z,58.40
2018-07-24T20:25:47.592Z,58.50
2018-07-24T20:28:16.179Z,58.90
2018-07-24T20:30:44.724Z,59.10
2018-07-24T20:33:13.230Z,59.10
2018-07-24T20:35:41.834Z,59.40
2018-07-24T20:38:10.365Z,59.20
2018-07-24T20:40:38.929Z,59.40
2018-07-24T20:43:07.505Z,59.80
2018-07-24T20:45:36.182Z,60.30
2018-07-24T20:48:04.790Z,60.40
2018-07-24T20:50:33.318Z,60.90
2018-07-24T20:53:01.923Z,61.20
2018-07-24T20:55:30.490Z,61.60
2018-07-24T20:57:59.037Z,62.00
2018-07-24T21:00:27.575Z,62.20
2018-07-24T21:02:56.136Z,62.30
2018-07-24T21:05:24.685Z,62.40
2018-07-24T21:07:53.254Z,62.70
2018-07-24T21:10:21.882Z,63.00
2018-07-24T21:12:50.884Z,63.10
2018-07-24T21:15:19.922Z,63.10
2018-07-24T21:17:48.444Z,63.60
2018-07-24T21:20:16.982Z,63.50
2018-07-24T21:22:45.551Z,63.60
2018-07-24T21:25:14.161Z,63.70
2018-07-24T21:27:42.691Z,63.90
2018-07-24T21:30:11.273Z,64.10
2018-07-24T21:32:39.796Z,64.40
2018-07-24T21:35:08.345Z,64.40
2018-07-24T21:37:36.859Z,64.60
2018-07-24T21:40:05.831Z,64.90
2018-07-24T21:42:34.408Z,65.10
2018-07-24T21:45:02.946Z,65.60
2018-07-24T21:47:31.595Z,66.00
2018-07-24T21:50:00.097Z,66.20
2018-07-24T21:52:28.595Z,66.70
2018-07-24T21:54:57.122Z,67.00
2018-07-24T21:57:25.673Z,67.30
2018-07-24T21:59:54.199Z,68.00
2018-07-24T22:02:22.726Z,68.30
2018-07-24T22:04:51.274Z,68.60
2018-07-24T22:07:19.817Z,69.00
2018-07-24T22:09:48.368Z,69.20
2018-07-24T22:12:16.885Z,69.20
2018-07-24T22:14:45.434Z,69.40
2018-07-24T22:17:13.983Z,69.70
2018-07-24T22:19:42.564Z,69.80
2018-07-24T22:22:11.081Z,70.00
2018-07-24T22:24:39.566Z,70.20
2018-07-24T22:29:36.453Z,70.50
2018-07-24T22:32:05.097Z,70.30
2018-07-24T22:34:33.601Z,70.60
2018-07-24T22:37:02.229Z,71.00
2018-07-24T22:39:30.762Z,71.00
2018-07-24T22:41:59.310Z,71.30
2018-07-24T22:44:27.828Z,71.80
2018-07-24T22:46:56.354Z,72.00
2018-07-24T22:49:24.887Z,72.00
2018-07-24T22:51:53.447Z,72.00
2018-07-24T22:54:21.994Z,72.00
2018-07-24T22:56:50.534Z,72.00
2018-07-24T22:59:19.040Z,71.70
2018-07-24T23:01:47.560Z,72.10
2018-07-24T23:04:16.058Z,72.10
2018-07-24T23:06:44.552Z,72.20
2018-07-24T23:09:13.096Z,72.40
2018-07-24T23:11:41.619Z,72.40
2018-07-24T23:14:10.153Z,72.80
2018-07-24T23:16:38.692Z,72.90
2018-07-24T23:19:07.222Z,72.80
2018-07-24T23:21:35.811Z,73.00
2018-07-24T23:24:04.991Z,73.50
2018-07-24T23:26:33.498Z,73.70
2018-07-24T23:29:02.015Z,74.10
2018-07-24T23:31:30.587Z,74.50
2018-07-24T23:33:59.096Z,74.60
2018-07-24T23:36:27.628Z,74.70
2018-07-24T23:38:56.150Z,74.60
2018-07-24T23:41:24.696Z,75.00
2018-07-24T23:43:53.262Z,75.30
2018-07-24T23:46:21.801Z,75.50
2018-07-24T23:48:50.424Z,75.50
2018-07-24T23:51:18.977Z,75.80
2018-07-24T23:53:47.570Z,76.00
2018-07-24T23:56:16.106Z,76.20
2018-07-24T23:58:44.682Z,76.20
